Time;durP1;ratioP1;P1;durP2;ratioP2;P2;SDS_P1;SDS_P2;PMS_P1;PMS_P2;Temp;Humidity;BMP_temperature;BMP_pressure;BME280_temperature;BME280_humidity;BME280_pressure;Samples;Min_cycle;Max_cycle;Signal;HPM_P1;HPM_P2
2021/07/27 00:00:54;;;;;;;;;13.00;12.00;;;;;-143.58;100.00;62559.47;5058453;28;45297;-46
2021/07/27 00:03:19;;;;;;;;;17.00;14.50;;;;;-143.58;100.00;62559.47;5059445;28;45314;-46
2021/07/27 00:05:45;;;;;;;;;18.75;18.75;;;;;-143.58;100.00;62559.47;5058434;28;45246;-46
2021/07/27 00:08:10;;;;;;;;;24.25;17.00;;;;;-143.58;100.00;62559.47;5059582;28;45316;-45
2021/07/27 00:10:37;;;;;;;;;19.75;16.50;;;;;-143.58;100.00;62559.47;5058605;28;45459;-48
2021/07/27 00:13:04;;;;;;;;;20.75;17.75;;;;;-143.58;100.00;62559.47;5058643;28;47324;-45
2021/07/27 00:15:29;;;;;;;;;16.75;14.50;;;;;-143.58;100.00;62559.47;5058482;28;45539;-46
2021/07/27 00:17:54;;;;;;;;;18.75;16.75;;;;;-143.58;100.00;62559.47;5047810;28;45343;-46
2021/07/27 00:20:21;;;;;;;;;16.75;15.75;;;;;-143.58;100.00;62559.47;5058084;28;47218;-46
2021/07/27 00:22:46;;;;;;;;;20.75;19.00;;;;;-143.58;100.00;62559.47;5062804;28;46114;-46
2021/07/27 00:25:14;;;;;;;;;19.00;14.75;;;;;-143.58;100.00;62559.47;5061927;28;45451;-46
2021/07/27 00:27:41;;;;;;;;;18.50;17.25;;;;;-143.58;100.00;62559.47;5049251;28;45392;-47
2021/07/27 00:30:07;;;;;;;;;21.00;17.25;;;;;-143.58;100.00;62559.47;5057287;28;45640;-47
2021/07/27 00:32:36;;;;;;;;;18.50;14.50;;;;;-143.58;100.00;62559.47;5060084;28;46131;-46
2021/07/27 00:35:03;;;;;;;;;17.25;16.75;;;;;-143.58;100.00;62559.47;5057967;28;45796;-47
2021/07/27 00:37:29;;;;;;;;;16.75;16.75;;;;;-143.58;100.00;62559.47;5052546;28;45402;-48
2021/07/27 00:39:55;;;;;;;;;19.25;18.50;;;;;-143.58;100.00;62559.47;5058837;28;45406;-49
2021/07/27 00:42:21;;;;;;;;;15.75;13.25;;;;;-143.58;100.00;62559.47;5060623;28;47014;-47
2021/07/27 00:44:46;;;;;;;;;16.75;15.75;;;;;-143.58;100.00;62559.47;5056113;28;45309;-45
2021/07/27 00:47:11;;;;;;;;;17.00;16.50;;;;;-143.58;100.00;62559.47;5048234;28;45408;-48
2021/07/27 00:49:37;;;;;;;;;17.50;16.25;;;;;-143.58;100.00;62559.47;5043370;28;45476;-47
2021/07/27 00:52:04;;;;;;;;;21.00;17.50;;;;;-143.58;100.00;62559.47;5053047;28;46058;-47
2021/07/27 00:54:29;;;;;;;;;21.25;16.50;;;;;-143.58;100.00;62559.47;5048535;28;45530;-48
2021/07/27 00:56:55;;;;;;;;;16.00;14.00;;;;;-143.58;100.00;62559.47;5062259;28;45469;-48
2021/07/27 00:59:21;;;;;;;;;16.75;16.00;;;;;-143.58;100.00;62559.47;5061105;28;45496;-46
2021/07/27 01:01:46;;;;;;;;;17.00;14.50;;;;;-143.58;100.00;62559.47;5062012;28;46246;-46
2021/07/27 01:04:12;;;;;;;;;20.75;17.50;;;;;-143.58;100.00;62559.47;5061397;28;45546;-46
2021/07/27 01:06:38;;;;;;;;;18.75;15.50;;;;;-143.58;100.00;62559.47;5062303;28;45445;-47
2021/07/27 01:09:03;;;;;;;;;14.25;13.00;;;;;-143.58;100.00;62559.47;5061406;28;45429;-47
2021/07/27 01:11:28;;;;;;;;;19.50;17.25;;;;;-143.58;100.00;62559.47;5061966;28;45343;-46
2021/07/27 01:13:54;;;;;;;;;21.25;16.25;;;;;-143.58;100.00;62559.47;5060691;28;45455;-46
2021/07/27 01:16:23;;;;;;;;;14.50;12.25;;;;;-143.58;100.00;62559.47;5062109;28;45462;-45
2021/07/27 01:38:13;;;;;;;;;20.50;18.50;;;;;-143.58;100.00;62559.47;5056847;28;45490;-45
2021/07/27 01:40:51;;;;;;;;;18.50;16.25;;;;;-143.58;100.00;62559.47;5060710;28;45255;-47
2021/07/27 01:43:20;;;;;;;;;13.00;12.50;;;;;-143.58;100.00;62559.47;5060033;28;45382;-47
2021/07/27 01:45:46;;;;;;;;;14.00;13.50;;;;;-143.58;100.00;62559.47;5061002;28;45278;-47
2021/07/27 01:48:13;;;;;;;;;14.75;12.75;;;;;-143.58;100.00;62559.47;5053206;28;45379;-46
2021/07/27 01:50:40;;;;;;;;;21.25;17.25;;;;;-143.58;100.00;62559.47;5048204;28;45360;-46
2021/07/27 01:53:05;;;;;;;;;17.75;15.25;;;;;-143.58;100.00;62559.47;5059991;28;45283;-47
2021/07/27 01:55:34;;;;;;;;;15.33;12.00;;;;;-143.58;100.00;62559.47;5061504;28;45518;-46
2021/07/27 01:58:01;;;;;;;;;19.00;15.75;;;;;-143.58;100.00;62559.47;5059216;28;45391;-47
2021/07/27 02:00:27;;;;;;;;;18.75;17.00;;;;;-143.58;100.00;62559.47;5060570;28;45341;-47
2021/07/27 02:02:52;;;;;;;;;16.75;16.25;;;;;-143.58;100.00;62559.47;5060948;28;46097;-47
2021/07/27 02:05:17;;;;;;;;;14.50;13.00;;;;;-143.58;100.00;62559.47;5060737;28;45224;-48
2021/07/27 02:07:47;;;;;;;;;19.25;14.75;;;;;-143.58;100.00;62559.47;5060956;28;45178;-46
2021/07/27 02:10:15;;;;;;;;;16.00;13.50;;;;;-143.58;100.00;62559.47;5060264;28;45449;-47
2021/07/27 02:12:49;;;;;;;;;19.25;17.00;;;;;-143.58;100.00;62559.47;5060597;28;47098;-46
2021/07/27 02:15:15;;;;;;;;;18.75;16.00;;;;;-143.58;100.00;62559.47;5060254;28;45478;-47
2021/07/27 02:17:41;;;;;;;;;16.75;14.25;;;;;-143.58;100.00;62559.47;5061234;28;45328;-46
2021/07/27 02:20:06;;;;;;;;;18.25;16.00;;;;;-143.58;100.00;62559.47;5059837;28;45458;-47
2021/07/27 02:22:33;;;;;;;;;15.00;13.25;;;;;-143.58;100.00;62559.47;5060789;28;46535;-46
2021/07/27 02:24:58;;;;;;;;;15.25;13.75;;;;;-143.58;100.00;62559.47;5046056;28;45218;-46
2021/07/27 02:27:29;;;;;;;;;15.00;13.75;;;;;-143.58;100.00;62559.47;5059739;28;45719;-46
2021/07/27 02:29:54;;;;;;;;;14.75;13.00;;;;;-143.58;100.00;62559.47;5058923;28;45536;-45
2021/07/27 02:32:20;;;;;;;;;17.25;16.25;;;;;-143.58;100.00;62559.47;5059056;28;46975;-45
2021/07/27 02:34:46;;;;;;;;;19.00;14.50;;;;;-143.58;100.00;62559.47;5059893;28;45257;-46
2021/07/27 02:37:12;;;;;;;;;14.00;13.00;;;;;-143.58;100.00;62559.47;5051715;28;45418;-46
2021/07/27 02:39:38;;;;;;;;;17.25;17.25;;;;;-143.58;100.00;62559.47;5056223;28;45578;-46
2021/07/27 02:42:04;;;;;;;;;18.50;18.00;;;;;-143.58;100.00;62559.47;5046631;28;48229;-45
2021/07/27 02:44:29;;;;;;;;;18.50;13.75;;;;;-143.58;100.00;62559.47;5057156;28;45608;-46
2021/07/27 02:46:54;;;;;;;;;17.25;15.00;;;;;-143.58;100.00;62559.47;5053641;28;45429;-46
2021/07/27 02:49:20;;;;;;;;;18.25;17.25;;;;;-143.58;100.00;62559.47;5051988;28;45522;-46
2021/07/27 02:51:51;;;;;;;;;16.75;12.25;;;;;-143.58;100.00;62559.47;5028407;28;46925;-45
2021/07/27 02:54:17;;;;;;;;;15.75;14.00;;;;;-143.58;100.00;62559.47;5044180;28;45356;-47
2021/07/27 02:56:43;;;;;;;;;15.25;13.75;;;;;-143.58;100.00;62559.47;5059757;28;45348;-46
2021/07/27 02:59:08;;;;;;;;;20.75;15.25;;;;;-143.58;100.00;62559.47;5058915;28;45539;-45
2021/07/27 03:01:34;;;;;;;;;16.00;13.75;;;;;-143.58;100.00;62559.47;5059974;28;51343;-47
2021/07/27 03:03:59;;;;;;;;;18.50;16.00;;;;;-143.58;100.00;62559.47;5059469;28;45296;-46
2021/07/27 03:06:26;;;;;;;;;18.50;15.00;;;;;-143.58;100.00;62559.47;5060410;28;45236;-46
2021/07/27 03:09:03;;;;;;;;;15.50;15.25;;;;;-143.58;100.00;62559.47;5059419;28;45441;-46
2021/07/27 03:11:32;;;;;;;;;20.00;17.00;;;;;-143.58;100.00;62559.47;5060138;28;47053;-46
2021/07/27 03:13:57;;;;;;;;;16.50;15.75;;;;;-143.58;100.00;62559.47;5058870;28;45384;-48
2021/07/27 03:16:25;;;;;;;;;18.00;14.00;;;;;-143.58;100.00;62559.47;5059980;28;45178;-46
2021/07/27 03:18:56;;;;;;;;;17.00;12.00;;;;;-143.58;100.00;62559.47;5059192;28;45449;-46
2021/07/27 03:21:24;;;;;;;;;19.75;16.25;;;;;-143.58;100.00;62559.47;5059806;28;46900;-46
2021/07/27 03:23:49;;;;;;;;;15.25;11.50;;;;;-143.58;100.00;62559.47;5059491;28;45580;-46
2021/07/27 03:26:18;;;;;;;;;21.00;14.00;;;;;-143.58;100.00;62559.47;5059291;28;45435;-46
2021/07/27 03:28:44;;;;;;;;;16.00;13.25;;;;;-143.58;100.00;62559.47;5047146;28;45543;-46
2021/07/27 03:31:09;;;;;;;;;16.75;16.75;;;;;-143.58;100.00;62559.47;5058943;28;45463;-46
2021/07/27 03:33:35;;;;;;;;;18.00;13.50;;;;;-143.58;100.00;62559.47;5059715;28;45328;-68
2021/07/27 03:36:00;;;;;;;;;19.50;17.00;;;;;-143.58;100.00;62559.47;5050774;28;45308;-68
2021/07/27 03:38:26;;;;;;;;;19.25;15.75;;;;;-143.58;100.00;62559.47;5059762;28;45316;-68
2021/07/27 03:40:51;;;;;;;;;16.50;15.25;;;;;-143.58;100.00;62559.47;5045959;28;46457;-68
2021/07/27 03:43:16;;;;;;;;;16.25;14.50;;;;;-143.58;100.00;62559.47;5059128;28;45469;-68
2021/07/27 03:45:42;;;;;;;;;17.50;16.50;;;;;-143.58;100.00;62559.47;5059075;28;45193;-68
2021/07/27 03:48:07;;;;;;;;;16.00;14.75;;;;;-143.58;100.00;62559.47;5052999;28;45186;-67
2021/07/27 03:50:32;;;;;;;;;19.00;14.00;;;;;-143.58;100.00;62559.47;5046950;28;46269;-67
2021/07/27 03:52:58;;;;;;;;;16.25;15.25;;;;;-143.58;100.00;62559.47;5057299;28;45300;-68
2021/07/27 03:55:23;;;;;;;;;21.00;15.50;;;;;-143.58;100.00;62559.47;5058820;28;45268;-67
2021/07/27 03:57:55;;;;;;;;;17.75;12.75;;;;;-143.58;100.00;62559.47;5057799;28;46022;-67
2021/07/27 04:00:23;;;;;;;;;16.75;16.75;;;;;-143.58;100.00;62559.47;5059273;28;46351;-68
2021/07/27 04:02:48;;;;;;;;;14.75;11.75;;;;;-143.58;100.00;62559.47;5058699;28;45305;-67
2021/07/27 04:05:13;;;;;;;;;18.25;13.75;;;;;-143.58;100.00;62559.47;5057994;28;48373;-67
2021/07/27 04:07:41;;;;;;;;;18.75;16.25;;;;;-143.58;100.00;62559.47;5058600;28;45264;-67
2021/07/27 04:10:07;;;;;;;;;11.75;10.75;;;;;-143.58;100.00;62559.47;5059110;28;45414;-67
2021/07/27 04:12:35;;;;;;;;;18.50;16.00;;;;;-143.58;100.00;62559.47;5057943;28;45280;-67
2021/07/27 04:15:00;;;;;;;;;17.25;13.50;;;;;-143.58;100.00;62559.47;5059105;28;45565;-67
2021/07/27 04:17:25;;;;;;;;;27.50;25.50;;;;;-143.58;100.00;62559.47;5058409;28;45470;-67
2021/07/27 04:19:51;;;;;;;;;29.00;25.50;;;;;-143.58;100.00;62559.47;5058941;28;45388;-68
2021/07/27 04:22:16;;;;;;;;;21.50;17.50;;;;;-143.58;100.00;62559.47;5058364;28;45271;-67
2021/07/27 04:24:41;;;;;;;;;16.75;16.75;;;;;-143.58;100.00;62559.47;5059430;28;45294;-67
2021/07/27 04:27:07;;;;;;;;;19.00;17.00;;;;;-143.58;100.00;62559.47;5057676;28;45566;-67
2021/07/27 04:29:34;;;;;;;;;18.75;14.75;;;;;-143.58;100.00;62559.47;5058704;28;46099;-67
2021/07/27 04:31:59;;;;;;;;;18.00;16.75;;;;;-143.58;100.00;62559.47;5058090;28;45236;-66
2021/07/27 04:34:24;;;;;;;;;18.25;14.75;;;;;-143.58;100.00;62559.47;5059052;28;45502;-66
2021/07/27 04:36:52;;;;;;;;;17.50;17.50;;;;;-143.58;100.00;62559.47;5048313;28;45714;-66
2021/07/27 04:39:18;;;;;;;;;17.25;17.25;;;;;-143.58;100.00;62559.47;5045417;28;45463;-66
2021/07/27 04:41:43;;;;;;;;;22.00;16.50;;;;;-143.58;100.00;62559.47;5056467;28;45482;-66
2021/07/27 04:44:09;;;;;;;;;20.00;17.75;;;;;-143.58;100.00;62559.47;5057538;28;45427;-66
2021/07/27 04:46:35;;;;;;;;;15.00;15.00;;;;;-143.58;100.00;62559.47;5038072;28;45387;-66
2021/07/27 04:49:00;;;;;;;;;13.00;11.50;;;;;-143.58;100.00;62559.47;5036467;28;45713;-66
2021/07/27 04:51:27;;;;;;;;;20.25;18.25;;;;;-143.58;100.00;62559.47;5040911;28;45348;-66
2021/07/27 04:53:58;;;;;;;;;21.50;20.25;;;;;-143.58;100.00;62559.47;5056179;28;45352;-66
2021/07/27 04:56:23;;;;;;;;;17.00;16.50;;;;;-143.58;100.00;62559.47;5055486;28;45469;-66
2021/07/27 04:58:49;;;;;;;;;19.50;16.25;;;;;-143.58;100.00;62559.47;5055513;28;46103;-66
2021/07/27 05:01:14;;;;;;;;;19.00;17.75;;;;;-143.58;100.00;62559.47;5055942;28;45420;-66
2021/07/27 05:03:40;;;;;;;;;19.50;19.50;;;;;-143.58;100.00;62559.47;5057749;28;45460;-66
2021/07/27 05:06:06;;;;;;;;;17.00;15.75;;;;;-143.58;100.00;62559.47;5059716;28;45462;-66
2021/07/27 05:08:31;;;;;;;;;17.75;17.00;;;;;-143.58;100.00;62559.47;5048618;28;46198;-66
2021/07/27 05:11:02;;;;;;;;;19.00;16.75;;;;;-143.58;100.00;62559.47;5061512;28;45231;-66
2021/07/27 05:13:28;;;;;;;;;19.50;16.50;;;;;-143.58;100.00;62559.47;5060838;28;45368;-66
2021/07/27 05:15:55;;;;;;;;;18.50;16.50;;;;;-143.58;100.00;62559.47;5061701;28;45340;-66
2021/07/27 05:18:20;;;;;;;;;23.00;17.50;;;;;-143.58;100.00;62559.47;5060726;28;46989;-66
2021/07/27 05:20:46;;;;;;;;;18.75;18.00;;;;;-143.58;100.00;62559.47;5061268;28;45335;-66
2021/07/27 05:23:11;;;;;;;;;22.50;17.75;;;;;-143.58;100.00;62559.47;5061056;28;45327;-65
2021/07/27 05:25:36;;;;;;;;;21.25;17.25;;;;;-143.58;100.00;62559.47;5061823;28;45532;-65
2021/07/27 05:28:02;;;;;;;;;18.75;17.50;;;;;-143.58;100.00;62559.47;5047250;28;45903;-65
2021/07/27 05:30:27;;;;;;;;;19.50;18.00;;;;;-143.58;100.00;62559.47;5061410;28;45456;-65
2021/07/27 05:32:55;;;;;;;;;17.00;16.50;;;;;-143.58;100.00;62559.47;5060090;28;45304;-65
2021/07/27 05:35:20;;;;;;;;;18.50;17.25;;;;;-143.58;100.00;62559.47;5045585;28;45394;-65
2021/07/27 05:37:47;;;;;;;;;18.00;15.75;;;;;-143.58;100.00;62559.47;5054481;28;46369;-65
2021/07/27 05:40:13;;;;;;;;;19.50;15.75;;;;;-143.58;100.00;62559.47;5049807;28;45316;-65
2021/07/27 05:42:38;;;;;;;;;16.00;16.00;;;;;-143.58;100.00;62559.47;5060330;28;45337;-65
2021/07/27 05:45:04;;;;;;;;;20.75;14.00;;;;;-143.58;100.00;62559.47;5061418;28;45463;-66
2021/07/27 05:47:29;;;;;;;;;24.25;19.00;;;;;-143.58;100.00;62559.47;5053133;28;46214;-65
2021/07/27 05:49:55;;;;;;;;;14.00;12.75;;;;;-143.58;100.00;62559.47;5053858;28;45339;-65
2021/07/27 05:52:20;;;;;;;;;19.50;15.50;;;;;-143.58;100.00;62559.47;5054423;28;45311;-66
2021/07/27 05:54:45;;;;;;;;;37.00;30.25;;;;;-143.58;100.00;62559.47;5060461;28;45298;-65
2021/07/27 05:57:15;;;;;;;;;20.00;17.75;;;;;-143.58;100.00;62559.47;5059853;28;45313;-65
2021/07/27 05:59:42;;;;;;;;;19.00;17.25;;;;;-143.58;100.00;62559.47;5035569;28;45508;-65
2021/07/27 06:02:08;;;;;;;;;19.25;17.25;;;;;-143.58;100.00;62559.47;5060162;28;45353;-65
2021/07/27 06:04:34;;;;;;;;;17.75;17.75;;;;;-143.58;100.00;62559.47;5061131;28;45257;-66
2021/07/27 06:06:59;;;;;;;;;19.75;17.25;;;;;-143.58;100.00;62559.47;5060044;28;46093;-65
2021/07/27 06:09:24;;;;;;;;;23.00;18.75;;;;;-143.58;100.00;62559.47;5060805;28;47949;-65
2021/07/27 06:11:50;;;;;;;;;19.25;17.00;;;;;-143.58;100.00;62559.47;5059681;28;45299;-65
2021/07/27 06:14:15;;;;;;;;;20.25;16.25;;;;;-143.58;100.00;62559.47;5060109;28;45590;-66
2021/07/27 06:16:41;;;;;;;;;16.75;15.75;;;;;-143.58;100.00;62559.47;5059390;28;45312;-65
2021/07/27 06:19:07;;;;;;;;;17.25;16.25;;;;;-143.58;100.00;62559.47;5060372;28;45384;-65
2021/07/27 06:21:35;;;;;;;;;19.50;17.75;;;;;-143.58;100.00;62559.47;5059832;28;45244;-65
2021/07/27 06:24:00;;;;;;;;;20.50;16.25;;;;;-143.58;100.00;62559.47;5060648;28;45444;-65
2021/07/27 06:26:26;;;;;;;;;18.25;16.75;;;;;-143.58;100.00;62559.47;5059553;28;46116;-65
2021/07/27 06:28:51;;;;;;;;;23.25;18.25;;;;;-143.58;100.00;62559.47;5060244;28;45413;-66
2021/07/27 06:31:16;;;;;;;;;19.25;15.50;;;;;-143.58;100.00;62559.47;5059366;28;45328;-65
2021/07/27 06:33:43;;;;;;;;;19.75;14.25;;;;;-143.58;100.00;62559.47;5060371;28;45382;-65
2021/07/27 06:36:09;;;;;;;;;19.75;16.25;;;;;-143.58;100.00;62559.47;5050400;28;45483;-65
2021/07/27 06:38:35;;;;;;;;;19.00;17.75;;;;;-143.58;100.00;62559.47;5060377;28;45336;-66
2021/07/27 06:41:04;;;;;;;;;19.75;17.75;;;;;-143.58;100.00;62559.47;5046649;28;45327;-65
2021/07/27 06:43:29;;;;;;;;;17.25;15.50;;;;;-143.58;100.00;62559.47;5059875;28;45292;-65
2021/07/27 06:45:56;;;;;;;;;22.50;18.75;;;;;-143.58;100.00;62559.47;5059366;28;46008;-65
2021/07/27 06:48:22;;;;;;;;;18.00;15.50;;;;;-143.58;100.00;62559.47;5053303;28;45652;-65
2021/07/27 06:50:48;;;;;;;;;17.25;16.75;;;;;-143.58;100.00;62559.47;5045509;28;45321;-65
2021/07/27 06:53:13;;;;;;;;;20.75;19.25;;;;;-143.58;100.00;62559.47;5059973;28;45245;-65
2021/07/27 06:55:38;;;;;;;;;19.25;14.75;;;;;-143.58;100.00;62559.47;5059388;28;46191;-67
2021/07/27 06:58:04;;;;;;;;;20.00;16.50;;;;;-143.58;100.00;62559.47;5058845;28;45331;-65
2021/07/27 07:00:29;;;;;;;;;21.75;16.25;;;;;-143.58;100.00;62559.47;5059559;28;45639;-65
2021/07/27 07:02:54;;;;;;;;;15.75;15.75;;;;;-143.58;100.00;62559.47;5059533;28;45415;-66
2021/07/27 07:05:20;;;;;;;;;19.00;17.25;;;;;-143.58;100.00;62559.47;5057798;28;45924;-66
2021/07/27 07:07:45;;;;;;;;;15.75;13.25;;;;;-143.58;100.00;62559.47;5059564;28;45332;-66
2021/07/27 07:10:11;;;;;;;;;20.00;17.00;;;;;-143.58;100.00;62559.47;5059312;28;45238;-66
2021/07/27 07:12:36;;;;;;;;;19.00;18.00;;;;;-143.58;100.00;62559.47;5058810;28;45333;-65
2021/07/27 07:15:02;;;;;;;;;17.75;15.75;;;;;-143.58;100.00;62559.47;5057519;28;47375;-65
2021/07/27 07:17:27;;;;;;;;;19.00;16.00;;;;;-143.58;100.00;62559.47;5059488;28;45447;-65
2021/07/27 07:19:53;;;;;;;;;16.75;15.75;;;;;-143.58;100.00;62559.47;5059061;28;45170;-65
2021/07/27 07:22:19;;;;;;;;;18.50;17.00;;;;;-143.58;100.00;62559.47;5052699;28;45660;-66
2021/07/27 07:24:48;;;;;;;;;21.50;17.25;;;;;-143.58;100.00;62559.47;5052871;28;46317;-66
2021/07/27 07:27:14;;;;;;;;;16.50;12.75;;;;;-143.58;100.00;62559.47;5059112;28;45869;-66
2021/07/27 07:29:40;;;;;;;;;17.00;14.25;;;;;-143.58;100.00;62559.47;5057642;28;45261;-66
2021/07/27 07:32:05;;;;;;;;;20.00;16.00;;;;;-143.58;100.00;62559.47;5059578;28;45431;-66
2021/07/27 07:34:34;;;;;;;;;18.50;15.75;;;;;-143.58;100.00;62559.47;5058890;28;45311;-66
2021/07/27 07:37:00;;;;;;;;;15.50;15.50;;;;;-143.58;100.00;62559.47;5050143;28;45257;-66
2021/07/27 07:39:29;;;;;;;;;19.75;16.75;;;;;-143.58;100.00;62559.47;5058265;28;45272;-66
2021/07/27 07:41:54;;;;;;;;;18.50;16.25;;;;;-143.58;100.00;62559.47;5058906;28;45332;-66
2021/07/27 07:44:20;;;;;;;;;20.25;16.25;;;;;-143.58;100.00;62559.47;5058565;28;45565;-66
2021/07/27 07:46:45;;;;;;;;;20.75;16.75;;;;;-143.58;100.00;62559.47;5056211;28;45320;-66
2021/07/27 07:49:10;;;;;;;;;14.75;10.00;;;;;-143.58;100.00;62559.47;5053177;28;45216;-66
2021/07/27 07:51:41;;;;;;;;;16.00;12.00;;;;;-143.58;100.00;62559.47;5046125;28;45406;-66
2021/07/27 07:54:06;;;;;;;;;16.25;14.50;;;;;-143.58;100.00;62559.47;5058197;28;46393;-65
2021/07/27 07:56:32;;;;;;;;;19.00;15.75;;;;;-143.58;100.00;62559.47;5057711;28;45378;-66
2021/07/27 07:58:57;;;;;;;;;16.00;13.75;;;;;-143.58;100.00;62559.47;5057866;28;45498;-66
2021/07/27 08:01:22;;;;;;;;;19.00;14.00;;;;;-143.58;100.00;62559.47;5059228;28;45345;-66
2021/07/27 08:03:48;;;;;;;;;20.00;17.25;;;;;-143.58;100.00;62559.47;5056935;28;47044;-66
2021/07/27 08:06:13;;;;;;;;;24.00;18.00;;;;;-143.58;100.00;62559.47;5059031;28;45333;-66
2021/07/27 08:08:39;;;;;;;;;13.25;13.25;;;;;-143.58;100.00;62559.47;5058634;28;45236;-66
2021/07/27 08:11:06;;;;;;;;;18.75;15.00;;;;;-143.58;100.00;62559.47;5059298;28;45346;-65
2021/07/27 08:13:31;;;;;;;;;17.75;15.00;;;;;-143.58;100.00;62559.47;5058019;28;45415;-65
2021/07/27 08:15:57;;;;;;;;;20.50;17.50;;;;;-143.58;100.00;62559.47;5059120;28;45220;-65
2021/07/27 08:18:22;;;;;;;;;16.75;15.00;;;;;-143.58;100.00;62559.47;5058612;28;45252;-66
2021/07/27 08:20:48;;;;;;;;;18.25;17.75;;;;;-143.58;100.00;62559.47;5059221;28;45236;-66
2021/07/27 08:23:13;;;;;;;;;14.50;13.25;;;;;-143.58;100.00;62559.47;5058319;28;45676;-65
2021/07/27 08:25:38;;;;;;;;;18.25;14.75;;;;;-143.58;100.00;62559.47;5058833;28;45320;-66
2021/07/27 08:28:04;;;;;;;;;15.75;14.75;;;;;-143.58;100.00;62559.47;5057553;28;45315;-65
2021/07/27 08:30:29;;;;;;;;;13.00;12.75;;;;;-143.58;100.00;62559.47;5058917;28;45221;-66
2021/07/27 08:32:55;;;;;;;;;16.75;16.50;;;;;-143.58;100.00;62559.47;5057954;28;45224;-65
2021/07/27 08:35:21;;;;;;;;;19.75;17.00;;;;;-143.58;100.00;62559.47;5055014;28;45507;-65
2021/07/27 08:37:47;;;;;;;;;28.75;23.75;;;;;-143.58;100.00;62559.47;5052994;28;45311;-65
2021/07/27 08:40:15;;;;;;;;;17.00;16.50;;;;;-143.58;100.00;62559.47;5058979;28;45398;-65
2021/07/27 08:42:41;;;;;;;;;19.50;17.25;;;;;-143.58;100.00;62559.47;5060864;28;46435;-65
2021/07/27 08:45:07;;;;;;;;;28.25;21.75;;;;;-143.58;100.00;62559.47;5062245;28;45514;-65
2021/07/27 08:47:33;;;;;;;;;15.50;13.75;;;;;-143.58;100.00;62559.47;5053972;28;45241;-65
2021/07/27 08:50:05;;;;;;;;;16.50;13.50;;;;;-143.58;100.00;62559.47;5054317;28;45544;-65
2021/07/27 08:52:30;;;;;;;;;20.25;19.00;;;;;-143.58;100.00;62559.47;5054604;28;46370;-66
2021/07/27 08:54:56;;;;;;;;;17.50;14.75;;;;;-143.58;100.00;62559.47;5062253;28;45363;-65
2021/07/27 08:57:21;;;;;;;;;22.50;18.50;;;;;-143.58;100.00;62559.47;5060406;28;45855;-65
2021/07/27 08:59:47;;;;;;;;;22.75;19.50;;;;;-143.58;100.00;62559.47;5062033;28;45252;-65
2021/07/27 09:02:12;;;;;;;;;21.25;18.75;;;;;-143.58;100.00;62559.47;5061075;28;46500;-66
2021/07/27 09:04:38;;;;;;;;;20.50;17.25;;;;;-143.58;100.00;62559.47;5044084;28;45163;-66
2021/07/27 09:07:05;;;;;;;;;25.75;19.25;;;;;-143.58;100.00;62559.47;5061268;28;45540;-66
2021/07/27 09:09:33;;;;;;;;;16.25;14.75;;;;;-143.58;100.00;62559.47;5053818;28;45233;-65
2021/07/27 09:11:59;;;;;;;;;22.25;19.50;;;;;-143.58;100.00;62559.47;5054195;28;47003;-66
2021/07/27 09:14:26;;;;;;;;;20.50;16.00;;;;;-143.58;100.00;62559.47;5050891;28;45316;-65
2021/07/27 09:16:53;;;;;;;;;26.25;18.50;;;;;-143.58;100.00;62559.47;5061127;28;45300;-66
2021/07/27 09:19:19;;;;;;;;;16.00;14.00;;;;;-143.58;100.00;62559.47;5062023;28;45264;-65
2021/07/27 09:21:46;;;;;;;;;15.75;15.75;;;;;-143.58;100.00;62559.47;5060688;28;45270;-65
2021/07/27 09:24:35;;;;;;;;;21.50;19.00;;;;;-143.58;100.00;62559.47;5061417;28;45359;-65
2021/07/27 09:27:08;;;;;;;;;19.00;16.25;;;;;-143.58;100.00;62559.47;5060035;28;45463;-66
2021/07/27 09:29:45;;;;;;;;;17.25;14.75;;;;;-143.58;100.00;62559.47;5060610;28;45557;-65
2021/07/27 09:32:19;;;;;;;;;23.25;15.00;;;;;-143.58;100.00;62559.47;5061209;28;47123;-66
2021/07/27 09:34:45;;;;;;;;;20.50;15.25;;;;;-143.58;100.00;62559.47;5059271;28;45629;-66
2021/07/27 09:37:11;;;;;;;;;19.25;15.50;;;;;-143.58;100.00;62559.47;5053058;28;45419;-66
2021/07/27 09:39:37;;;;;;;;;16.00;13.75;;;;;-143.58;100.00;62559.47;5056636;28;45304;-66
2021/07/27 09:42:08;;;;;;;;;15.50;14.50;;;;;-143.58;100.00;62559.47;5051809;28;46365;-65
2021/07/27 09:44:35;;;;;;;;;18.50;14.50;;;;;-143.58;100.00;62559.47;5060491;28;45295;-66
2021/07/27 09:47:02;;;;;;;;;22.75;16.25;;;;;-143.58;100.00;62559.47;5056013;28;45455;-65
2021/07/27 09:49:28;;;;;;;;;22.00;17.00;;;;;-143.58;100.00;62559.47;5055775;28;46212;-66
2021/07/27 09:51:56;;;;;;;;;18.75;15.00;;;;;-143.58;100.00;62559.47;5049530;28;47017;-66
2021/07/27 09:54:23;;;;;;;;;16.75;15.25;;;;;-143.58;100.00;62559.47;5058913;28;45311;-66
2021/07/27 09:56:51;;;;;;;;;20.00;16.75;;;;;-143.58;100.00;62559.47;5060566;28;45308;-66
2021/07/27 09:59:17;;;;;;;;;17.50;14.50;;;;;-143.58;100.00;62559.47;5059840;28;45385;-66
2021/07/27 10:01:50;;;;;;;;;19.00;15.50;;;;;-143.58;100.00;62559.47;5060741;28;46163;-66
2021/07/27 10:04:22;;;;;;;;;19.50;14.50;;;;;-143.58;100.00;62559.47;5060073;28;45673;-67
2021/07/27 10:06:48;;;;;;;;;18.25;15.00;;;;;-143.58;100.00;62559.47;5060926;28;45476;-67
2021/07/27 10:09:30;;;;;;;;;13.50;10.25;;;;;-143.58;100.00;62559.47;5060172;28;45411;-66
2021/07/27 10:12:32;;;;;;;;;16.25;14.75;;;;;-143.58;100.00;62559.47;5059390;28;46296;-66
2021/07/27 10:15:16;;;;;;;;;16.50;16.50;;;;;-143.58;100.00;62559.47;5045855;28;45273;-67
2021/07/27 10:17:51;;;;;;;;;17.50;14.00;;;;;-143.58;100.00;62559.47;5050354;28;45469;-66
2021/07/27 10:20:28;;;;;;;;;20.50;17.00;;;;;-143.58;100.00;62559.47;5059791;28;45654;-66
2021/07/27 10:22:53;;;;;;;;;14.00;14.00;;;;;-143.58;100.00;62559.47;5060624;28;46318;-66
2021/07/27 10:25:20;;;;;;;;;18.50;16.00;;;;;-143.58;100.00;62559.47;5059687;28;45433;-67
2021/07/27 10:27:50;;;;;;;;;18.75;15.25;;;;;-143.58;100.00;62559.47;5060212;28;45260;-66
2021/07/27 10:30:16;;;;;;;;;16.00;16.00;;;;;-143.58;100.00;62559.47;5059398;28;45600;-66
2021/07/27 10:32:53;;;;;;;;;16.75;16.00;;;;;-143.58;100.00;62559.47;5059843;28;45404;-66
2021/07/27 10:35:26;;;;;;;;;14.25;12.75;;;;;-143.58;100.00;62559.47;5044459;28;45369;-66
2021/07/27 10:37:52;;;;;;;;;15.00;12.00;;;;;-143.58;100.00;62559.47;5055539;28;45261;-66
2021/07/27 10:40:30;;;;;;;;;16.00;12.75;;;;;-143.58;100.00;62559.47;5051427;28;45272;-66
2021/07/27 10:42:56;;;;;;;;;15.75;13.75;;;;;-143.58;100.00;62559.47;5056656;28;45375;-66
2021/07/27 10:45:21;;;;;;;;;12.25;11.75;;;;;-143.58;100.00;62559.47;5059958;28;45632;-66
2021/07/27 10:47:51;;;;;;;;;14.00;13.00;;;;;-143.58;100.00;62559.47;5051955;28;45419;-66
2021/07/27 10:50:17;;;;;;;;;18.50;16.25;;;;;-143.58;100.00;62559.47;5049770;28;45497;-65
2021/07/27 10:52:44;;;;;;;;;14.75;13.50;;;;;-143.58;100.00;62559.47;5055575;28;46262;-66
2021/07/27 10:55:11;;;;;;;;;14.75;12.75;;;;;-143.58;100.00;62559.47;5060120;28;45622;-66
2021/07/27 10:57:42;;;;;;;;;14.25;12.75;;;;;-143.58;100.00;62559.47;5058604;28;45688;-65
2021/07/27 11:00:09;;;;;;;;;15.00;13.50;;;;;-143.58;100.00;62559.47;5059904;28;45240;-66
2021/07/27 11:02:34;;;;;;;;;18.75;17.25;;;;;-143.58;100.00;62559.47;5059103;28;46164;-66
2021/07/27 11:04:59;;;;;;;;;19.00;15.25;;;;;-143.58;100.00;62559.47;5059634;28;45214;-65
2021/07/27 11:07:27;;;;;;;;;17.25;15.00;;;;;-143.58;100.00;62559.47;5059260;28;45261;-66
2021/07/27 11:09:55;;;;;;;;;14.00;13.25;;;;;-143.58;100.00;62559.47;5060034;28;45725;-66
2021/07/27 11:12:43;;;;;;;;;15.75;14.50;;;;;-143.58;100.00;62559.47;5058511;28;45427;-65